createdAt,value
2022-09-10T00:01:32.730Z,4.73
2022-09-10T00:04:01.497Z,3.77
2022-09-10T00:06:28.958Z,3.13
2022-09-10T00:08:57.645Z,5.23
2022-09-10T00:11:28.026Z,3.70
2022-09-10T00:13:57.253Z,5.83
2022-09-10T00:16:24.472Z,4.70
2022-09-10T00:18:51.522Z,4.30
2022-09-10T00:21:20.830Z,3.87
2022-09-10T00:23:49.043Z,5.80
2022-09-10T00:26:34.390Z,8.90
2022-09-10T00:29:01.609Z,4.53
2022-09-10T00:31:30.279Z,5.63
2022-09-10T00:33:58.397Z,5.30
2022-09-10T00:36:32.760Z,3.97
2022-09-10T00:39:02.344Z,4.97
2022-09-10T00:41:29.780Z,4.53
2022-09-10T00:44:02.463Z,5.10
2022-09-10T00:46:48.462Z,6.13
2022-09-10T00:49:35.888Z,3.83
2022-09-10T00:52:03.156Z,7.20
2022-09-10T00:54:33.641Z,5.27
2022-09-10T00:57:06.090Z,5.63
2022-09-10T00:59:33.572Z,5.03
2022-09-10T01:02:01.040Z,4.93
2022-09-10T01:04:28.728Z,6.67
2022-09-10T01:06:56.053Z,6.93
2022-09-10T01:09:24.377Z,6.83
2022-09-10T01:12:38.235Z,7.20
2022-09-10T01:15:07.729Z,6.13
2022-09-10T01:17:58.464Z,5.40
2022-09-10T01:20:56.714Z,5.43
2022-09-10T01:23:48.706Z,7.80
2022-09-10T01:26:27.337Z,5.83
2022-09-10T01:29:11.794Z,5.53
2022-09-10T01:31:49.249Z,6.73
2022-09-10T01:34:21.868Z,4.93
2022-09-10T01:36:51.841Z,5.50
2022-09-10T01:39:20.744Z,6.63
2022-09-10T01:41:48.395Z,7.83
2022-09-10T01:44:41.918Z,7.00
2022-09-10T01:47:39.968Z,5.63
2022-09-10T01:50:13.320Z,6.97
2022-09-10T01:52:57.508Z,4.77
2022-09-10T01:55:27.185Z,7.43
2022-09-10T01:57:59.318Z,7.27
2022-09-10T02:00:26.964Z,7.37
2022-09-10T02:03:11.200Z,7.93
2022-09-10T02:05:40.477Z,6.17
2022-09-10T02:08:14.611Z,5.93
2022-09-10T02:10:57.547Z,7.07
2022-09-10T02:13:24.402Z,5.03
2022-09-10T02:15:52.630Z,8.07
2022-09-10T02:18:20.980Z,5.60
2022-09-10T02:20:49.478Z,7.07
2022-09-10T02:23:19.732Z,6.57
2022-09-10T02:25:48.342Z,7.70
2022-09-10T02:28:15.454Z,5.73
2022-09-10T02:30:42.049Z,6.20
2022-09-10T02:33:08.618Z,6.23
2022-09-10T02:35:35.165Z,6.80
2022-09-10T02:38:01.770Z,5.77
2022-09-10T02:40:31.354Z,5.77
2022-09-10T02:42:57.935Z,7.67
2022-09-10T02:45:24.887Z,9.13
2022-09-10T02:47:51.480Z,9.33
2022-09-10T02:50:19.045Z,9.57
2022-09-10T02:52:46.111Z,7.90
2022-09-10T02:55:13.667Z,9.33
2022-09-10T02:57:40.294Z,9.60
2022-09-10T03:00:08.356Z,6.83
2022-09-10T03:02:34.913Z,8.53
2022-09-10T03:05:01.544Z,9.17
2022-09-10T03:07:28.138Z,7.93
2022-09-10T03:09:54.719Z,6.60
2022-09-10T03:12:21.459Z,7.33
2022-09-10T03:14:48.577Z,7.73
2022-09-10T03:17:15.269Z,6.90
2022-09-10T03:19:41.961Z,8.20
2022-09-10T03:22:08.530Z,11.23
2022-09-10T03:24:35.076Z,8.13
2022-09-10T03:27:01.693Z,7.73
2022-09-10T03:29:30.020Z,10.67
2022-09-10T03:31:56.581Z,8.77
2022-09-10T03:34:23.136Z,8.47
2022-09-10T03:36:51.277Z,9.20
2022-09-10T03:39:18.824Z,10.03
2022-09-10T03:41:46.142Z,11.57
2022-09-10T03:44:12.970Z,10.80
2022-09-10T03:46:39.657Z,9.93
2022-09-10T03:49:06.309Z,13.67
2022-09-10T03:51:33.969Z,9.33
2022-09-10T03:54:00.680Z,11.47
2022-09-10T03:56:28.126Z,11.37
2022-09-10T03:58:54.742Z,12.80
2022-09-10T04:01:21.313Z,14.70
2022-09-10T04:03:47.929Z,11.70
2022-09-10T04:06:16.145Z,13.70
2022-09-10T04:08:46.140Z,12.93
2022-09-10T04:11:13.717Z,12.53
2022-09-10T04:13:40.281Z,12.80
2022-09-10T04:16:07.085Z,12.20
2022-09-10T04:18:34.449Z,13.43
2022-09-10T04:21:01.164Z,12.77
2022-09-10T04:23:29.333Z,14.63
2022-09-10T04:25:56.990Z,11.37
2022-09-10T04:28:24.073Z,15.60
2022-09-10T04:30:51.132Z,14.77
2022-09-10T04:33:24.996Z,15.53
2022-09-10T04:35:51.541Z,12.13
2022-09-10T04:38:18.098Z,11.60
2022-09-10T04:40:44.701Z,14.47
2022-09-10T04:43:11.622Z,10.63
2022-09-10T04:45:38.371Z,15.13
2022-09-10T04:48:07.074Z,13.30
2022-09-10T04:50:33.956Z,13.07
2022-09-10T04:53:01.097Z,12.57
2022-09-10T04:55:27.670Z,13.63
2022-09-10T04:57:54.486Z,17.87
2022-09-10T05:00:21.121Z,14.97
2022-09-10T05:02:47.814Z,18.37
2022-09-10T05:05:14.464Z,12.27
2022-09-10T05:07:41.016Z,15.13
2022-09-10T05:10:10.368Z,11.20
2022-09-10T05:12:38.416Z,14.20
2022-09-10T05:15:09.865Z,14.67
2022-09-10T05:17:36.420Z,13.53
2022-09-10T05:20:05.883Z,13.93
2022-09-10T05:22:38.463Z,12.93
2022-09-10T05:25:07.352Z,12.33
2022-09-10T05:27:33.937Z,13.83
2022-09-10T05:30:02.000Z,18.77
2022-09-10T05:32:29.408Z,17.13
2022-09-10T05:34:55.960Z,13.37
2022-09-10T05:37:22.507Z,15.23
2022-09-10T05:39:49.188Z,14.70
2022-09-10T05:42:15.805Z,14.47
2022-09-10T05:44:42.340Z,16.20
2022-09-10T05:47:08.969Z,13.87
2022-09-10T05:49:36.545Z,18.53
2022-09-10T05:52:03.212Z,14.83
2022-09-10T05:54:29.793Z,13.40
2022-09-10T05:56:58.586Z,15.80
2022-09-10T05:59:25.169Z,10.37
2022-09-10T06:01:52.282Z,12.73
2022-09-10T06:04:19.702Z,12.47
2022-09-10T06:06:47.722Z,14.27
2022-09-10T06:09:14.730Z,14.07
2022-09-10T06:11:41.772Z,15.63
2022-09-10T06:14:08.922Z,14.90
2022-09-10T06:16:35.520Z,13.40
2022-09-10T06:19:03.280Z,12.87
2022-09-10T06:21:30.033Z,14.87
2022-09-10T06:23:56.769Z,12.13
2022-09-10T06:26:23.485Z,14.47
2022-09-10T06:28:50.039Z,16.90
2022-09-10T06:31:19.993Z,18.27
2022-09-10T06:33:48.831Z,14.37
2022-09-10T06:36:15.836Z,14.33
2022-09-10T06:38:44.967Z,13.60
2022-09-10T06:41:13.592Z,14.27
2022-09-10T06:43:41.560Z,15.07
2022-09-10T06:46:50.957Z,10.53
2022-09-10T06:49:03.277Z,14.07
2022-09-10T06:51:30.097Z,14.77
2022-09-10T06:53:57.702Z,17.50
2022-09-10T06:56:24.368Z,13.60
2022-09-10T06:58:51.625Z,15.00
2022-09-10T07:01:20.691Z,15.60
2022-09-10T07:03:47.654Z,16.87
2022-09-10T07:06:19.440Z,16.13
2022-09-10T07:08:46.126Z,13.73
2022-09-10T07:11:14.776Z,17.13
2022-09-10T07:13:42.998Z,15.83
2022-09-10T07:16:09.644Z,19.40
2022-09-10T07:18:36.474Z,22.00
2022-09-10T07:21:08.258Z,18.03
2022-09-10T07:23:35.233Z,15.60
2022-09-10T07:26:11.318Z,19.63
2022-09-10T07:28:38.998Z,18.33
2022-09-10T07:31:22.294Z,20.30
2022-09-10T07:33:49.812Z,15.27
2022-09-10T07:36:17.730Z,16.27
2022-09-10T07:38:44.711Z,16.97
2022-09-10T07:41:13.870Z,16.47
2022-09-10T07:43:41.947Z,13.70
2022-09-10T07:46:12.735Z,18.83
2022-09-10T07:48:41.445Z,18.37
2022-09-10T07:51:09.012Z,19.23
2022-09-10T07:53:35.869Z,15.67
2022-09-10T07:56:07.052Z,19.77
2022-09-10T07:58:35.731Z,20.53
2022-09-10T08:01:06.371Z,16.73
2022-09-10T08:03:33.940Z,18.60
2022-09-10T08:06:05.216Z,18.67
2022-09-10T08:08:33.886Z,17.57
2022-09-10T08:11:20.080Z,19.37
2022-09-10T08:13:49.236Z,18.67
2022-09-10T08:16:21.128Z,16.77
2022-09-10T08:18:48.655Z,18.87
2022-09-10T08:21:16.656Z,22.23
2022-09-10T08:23:48.353Z,20.90
2022-09-10T08:26:14.985Z,19.63
2022-09-10T08:28:43.117Z,18.17
2022-09-10T08:31:12.222Z,18.17
2022-09-10T08:33:39.672Z,15.70
2022-09-10T08:36:11.912Z,18.30
2022-09-10T08:38:39.741Z,16.30
2022-09-10T08:41:25.159Z,14.13
2022-09-10T08:43:55.744Z,14.70
2022-09-10T08:46:25.485Z,16.63
2022-09-10T08:49:11.874Z,13.67
2022-09-10T08:51:52.816Z,13.57
2022-09-10T08:54:33.221Z,15.80
2022-09-10T08:57:01.513Z,14.40
2022-09-10T08:59:34.660Z,13.03
2022-09-10T09:02:47.964Z,12.97
2022-09-10T09:05:21.585Z,12.83
2022-09-10T09:07:49.347Z,14.77
2022-09-10T09:10:24.885Z,13.93
2022-09-10T09:13:19.915Z,12.57
2022-09-10T09:16:07.745Z,12.33
2022-09-10T09:19:07.230Z,13.57
2022-09-10T09:21:53.845Z,12.47
2022-09-10T09:24:25.025Z,11.03
2022-09-10T09:26:57.232Z,11.20
2022-09-10T09:29:44.348Z,8.50
2022-09-10T09:32:16.093Z,9.43
2022-09-10T09:35:00.512Z,8.57
2022-09-10T09:37:30.140Z,9.73
2022-09-10T09:40:33.553Z,8.93
2022-09-10T09:43:11.345Z,12.30
2022-09-10T09:45:43.033Z,10.93
2022-09-10T09:48:15.630Z,10.23
2022-09-10T09:50:45.652Z,8.67
2022-09-10T09:53:21.086Z,7.23
2022-09-10T09:55:53.741Z,9.80
2022-09-10T09:58:29.503Z,9.93
2022-09-10T10:01:05.059Z,8.83
2022-09-10T10:03:44.301Z,9.40
2022-09-10T10:06:12.368Z,6.63
2022-09-10T10:08:41.335Z,7.43
2022-09-10T10:11:09.134Z,8.80
2022-09-10T10:13:42.104Z,10.43
2022-09-10T10:16:17.101Z,10.53
2022-09-10T10:18:45.133Z,7.00
2022-09-10T10:21:20.561Z,6.97
2022-09-10T10:23:47.821Z,8.37
2022-09-10T10:26:21.813Z,8.13
2022-09-10T10:28:51.014Z,9.47
2022-09-10T10:31:18.867Z,6.63
2022-09-10T10:33:58.693Z,8.80
2022-09-10T10:36:29.288Z,6.57
2022-09-10T10:39:05.383Z,7.63
2022-09-10T10:41:37.868Z,7.97
2022-09-10T10:44:45.602Z,6.97
2022-09-10T10:47:28.000Z,6.83
2022-09-10T10:50:08.882Z,5.43
2022-09-10T10:52:49.892Z,6.53
2022-09-10T10:55:23.409Z,8.43
2022-09-10T10:58:18.216Z,7.37
2022-09-10T11:00:51.358Z,10.40
2022-09-10T11:03:44.824Z,6.53
2022-09-10T11:06:19.222Z,6.23
2022-09-10T11:08:55.117Z,8.03
2022-09-10T11:11:31.629Z,11.17
2022-09-10T11:14:04.013Z,9.37
2022-09-10T11:16:41.418Z,8.27
2022-09-10T11:19:23.353Z,7.43
2022-09-10T11:22:02.415Z,8.43
2022-09-10T11:24:51.051Z,8.77
2022-09-10T11:27:27.510Z,7.03
2022-09-10T11:30:05.462Z,9.00
2022-09-10T11:32:41.383Z,9.30
2022-09-10T11:35:21.829Z,7.47
2022-09-10T11:37:52.509Z,7.93
2022-09-10T11:40:46.908Z,8.37
2022-09-10T11:43:25.988Z,7.33
2022-09-10T11:45:57.435Z,8.83
2022-09-10T11:48:34.616Z,8.87
2022-09-10T11:51:15.790Z,10.13
2022-09-10T11:53:42.613Z,8.60
2022-09-10T11:56:31.558Z,7.83
2022-09-10T11:59:17.315Z,9.80
2022-09-10T12:02:02.816Z,8.03
2022-09-10T12:04:48.365Z,11.50
2022-09-10T12:07:21.070Z,9.37
2022-09-10T12:10:14.327Z,7.53
2022-09-10T12:12:46.325Z,7.40
2022-09-10T12:15:21.593Z,8.57
2022-09-10T12:17:55.462Z,7.83
2022-09-10T12:20:30.142Z,8.20
2022-09-10T12:22:57.116Z,6.43
2022-09-10T12:25:33.842Z,6.90
2022-09-10T12:28:04.144Z,7.87
2022-09-10T12:30:30.870Z,9.10
2022-09-10T12:33:00.968Z,9.07
2022-09-10T12:35:31.074Z,8.07
2022-09-10T12:38:35.659Z,9.00
2022-09-10T12:41:04.421Z,5.63
2022-09-10T12:43:40.055Z,10.00
2022-09-10T12:46:09.790Z,8.10
2022-09-10T12:48:45.498Z,7.90
2022-09-10T12:51:18.376Z,6.40
2022-09-10T12:54:03.501Z,6.17
2022-09-10T12:57:01.515Z,7.17
2022-09-10T12:59:51.055Z,6.63
2022-09-10T13:02:31.739Z,10.27
2022-09-10T13:05:03.057Z,6.90
2022-09-10T13:07:41.900Z,9.20
2022-09-10T13:10:18.447Z,10.67
2022-09-10T13:12:50.489Z,11.03
2022-09-10T13:15:23.998Z,10.07
2022-09-10T13:17:51.273Z,9.50
2022-09-10T13:20:20.915Z,8.97
2022-09-10T13:22:57.579Z,9.77
2022-09-10T13:25:41.379Z,10.13
2022-09-10T13:28:29.992Z,7.80
2022-09-10T13:31:08.835Z,12.57
2022-09-10T13:33:50.153Z,10.90
2022-09-10T13:36:41.538Z,8.83
2022-09-10T13:39:26.560Z,13.17
2022-09-10T13:42:10.990Z,7.77
2022-09-10T13:44:56.452Z,11.53
2022-09-10T13:47:31.857Z,10.17
2022-09-10T13:50:05.206Z,9.03
2022-09-10T13:52:35.347Z,9.53
2022-09-10T13:55:05.059Z,9.33
2022-09-10T13:57:40.749Z,10.43
2022-09-10T14:00:28.775Z,10.97
2022-09-10T14:03:00.793Z,8.43
2022-09-10T14:05:27.303Z,8.93
2022-09-10T14:08:00.257Z,9.40
2022-09-10T14:10:27.084Z,8.77
2022-09-10T14:12:55.721Z,8.30
2022-09-10T14:15:29.965Z,8.93
2022-09-10T14:17:59.789Z,7.40
2022-09-10T14:20:31.957Z,6.50
2022-09-10T14:23:07.454Z,9.67
2022-09-10T14:25:36.685Z,7.00
2022-09-10T14:28:15.432Z,7.33
2022-09-10T14:30:47.958Z,10.90
2022-09-10T14:33:36.465Z,9.00
2022-09-10T14:36:24.596Z,6.27
2022-09-10T14:39:16.951Z,5.80
2022-09-10T14:41:44.525Z,8.03
2022-09-10T14:44:23.675Z,9.93
2022-09-10T14:46:51.527Z,8.73
2022-09-10T14:49:28.635Z,7.43
2022-09-10T14:51:59.928Z,6.90
2022-09-10T14:54:27.574Z,8.10
2022-09-10T14:56:56.717Z,8.43
2022-09-10T14:59:32.978Z,11.10
2022-09-10T15:02:00.969Z,9.77
2022-09-10T15:04:30.025Z,12.70
2022-09-10T15:06:58.492Z,9.60
2022-09-10T15:09:26.801Z,10.97
2022-09-10T15:11:58.892Z,10.77
2022-09-10T15:14:26.012Z,7.97
2022-09-10T15:16:52.788Z,11.33
2022-09-10T15:19:20.220Z,9.30
2022-09-10T15:21:46.905Z,11.90
2022-09-10T15:24:15.831Z,9.60
2022-09-10T15:26:42.720Z,10.50
2022-09-10T15:29:10.448Z,13.90
2022-09-10T15:31:37.529Z,13.10
2022-09-10T15:34:08.681Z,10.73
2022-09-10T15:36:37.054Z,11.90
2022-09-10T15:39:05.202Z,12.03
2022-09-10T15:41:31.842Z,10.77
2022-09-10T15:44:01.733Z,10.90
2022-09-10T15:46:28.685Z,13.47
2022-09-10T15:48:58.621Z,12.50
2022-09-10T15:51:25.474Z,12.97
2022-09-10T15:53:53.350Z,11.53
2022-09-10T15:56:21.100Z,11.70
2022-09-10T15:58:52.668Z,11.07
2022-09-10T16:01:19.319Z,11.67
2022-09-10T16:03:52.726Z,10.90
2022-09-10T16:06:19.987Z,10.20
2022-09-10T16:09:00.789Z,10.17
2022-09-10T16:11:32.285Z,11.67
2022-09-10T16:14:04.559Z,11.60
2022-09-10T16:16:32.502Z,12.30
2022-09-10T16:19:00.301Z,13.40
2022-09-10T16:21:30.889Z,9.20
2022-09-10T16:23:58.972Z,10.17
2022-09-10T16:26:29.545Z,10.97
2022-09-10T16:28:58.492Z,9.83
2022-09-10T16:31:34.105Z,13.93
2022-09-10T16:34:03.409Z,8.23
2022-09-10T16:36:32.870Z,8.13
2022-09-10T16:39:03.399Z,9.03
2022-09-10T16:41:30.241Z,7.17
2022-09-10T16:43:59.212Z,12.43
2022-09-10T16:46:27.182Z,11.53
2022-09-10T16:48:54.922Z,10.37
2022-09-10T16:51:24.182Z,7.33
2022-09-10T16:54:02.177Z,11.53
2022-09-10T16:56:37.833Z,9.13
2022-09-10T16:59:07.410Z,7.93
2022-09-10T17:01:35.555Z,7.60
2022-09-10T17:04:03.705Z,6.50
2022-09-10T17:06:31.194Z,6.50
2022-09-10T17:08:59.759Z,7.60
2022-09-10T17:11:29.023Z,6.07
2022-09-10T17:13:56.915Z,6.73
2022-09-10T17:16:32.578Z,6.30
2022-09-10T17:18:59.149Z,6.73
2022-09-10T17:21:28.218Z,5.43
2022-09-10T17:23:55.928Z,4.97
2022-09-10T17:26:24.160Z,4.87
2022-09-10T17:29:02.100Z,5.13
2022-09-10T17:31:30.314Z,4.20
2022-09-10T17:33:57.229Z,5.50
2022-09-10T17:36:25.255Z,4.03
2022-09-10T17:38:53.562Z,3.27
2022-09-10T17:41:21.648Z,5.10
2022-09-10T17:43:49.578Z,4.93
2022-09-10T17:46:18.928Z,3.13
2022-09-10T17:48:45.749Z,3.87
2022-09-10T17:51:14.688Z,3.60
2022-09-10T17:53:41.282Z,4.10
2022-09-10T17:56:10.739Z,2.97
2022-09-10T17:58:38.289Z,3.03
2022-09-10T18:01:23.138Z,4.43
2022-09-10T18:03:50.901Z,3.87
2022-09-10T18:06:17.436Z,3.13
2022-09-10T18:08:44.533Z,3.43
2022-09-10T18:11:14.126Z,3.77
2022-09-10T18:13:40.788Z,4.33
2022-09-10T18:16:09.862Z,4.83
2022-09-10T18:18:37.845Z,5.07
2022-09-10T18:21:16.536Z,4.00
2022-09-10T18:23:44.068Z,4.77
2022-09-10T18:26:15.298Z,4.40
2022-09-10T18:28:43.988Z,4.10
2022-09-10T18:31:11.342Z,4.73
2022-09-10T18:33:39.535Z,6.10
2022-09-10T18:36:14.792Z,7.17
2022-09-10T18:38:41.974Z,6.43
2022-09-10T18:41:19.684Z,5.43
2022-09-10T18:43:47.237Z,7.43
2022-09-10T18:46:14.918Z,7.47
2022-09-10T18:48:42.313Z,5.63
2022-09-10T18:51:11.598Z,6.53
2022-09-10T18:53:38.982Z,8.07
2022-09-10T18:56:17.947Z,8.70
2022-09-10T18:58:53.347Z,7.00
2022-09-10T19:01:20.397Z,7.77
2022-09-10T19:03:48.556Z,9.53
2022-09-10T19:06:20.756Z,10.60
2022-09-10T19:08:48.742Z,9.70
2022-09-10T19:11:19.132Z,11.13
2022-09-10T19:13:54.298Z,9.20
2022-09-10T19:16:24.854Z,10.13
2022-09-10T19:18:53.657Z,10.90
2022-09-10T19:21:21.692Z,12.10
2022-09-10T19:23:50.009Z,12.73
2022-09-10T19:26:18.364Z,11.27
2022-09-10T19:28:47.619Z,14.30
2022-09-10T19:31:17.174Z,12.37
2022-09-10T19:33:43.826Z,14.93
2022-09-10T19:36:14.210Z,13.93
2022-09-10T19:38:41.353Z,14.23
2022-09-10T19:41:13.601Z,13.23
2022-09-10T19:43:41.247Z,14.17
2022-09-10T19:46:12.752Z,14.70
2022-09-10T19:48:40.077Z,15.57
2022-09-10T19:51:09.790Z,16.97
2022-09-10T19:53:37.382Z,13.83
2022-09-10T19:56:05.342Z,13.00
2022-09-10T19:58:32.225Z,14.97
2022-09-10T20:00:58.827Z,15.37
2022-09-10T20:03:25.426Z,13.67
2022-09-10T20:05:52.006Z,14.60
2022-09-10T20:08:18.552Z,15.43
2022-09-10T20:10:54.076Z,17.70
2022-09-10T20:13:20.626Z,16.13
2022-09-10T20:15:47.898Z,17.10
2022-09-10T20:18:14.514Z,17.13
2022-09-10T20:20:41.065Z,14.60
2022-09-10T20:23:07.596Z,16.37
2022-09-10T20:25:38.393Z,16.83
2022-09-10T20:28:05.461Z,15.30
2022-09-10T20:30:32.046Z,16.67
2022-09-10T20:32:58.675Z,19.70
2022-09-10T20:35:25.200Z,15.73
2022-09-10T20:37:51.911Z,17.63
2022-09-10T20:40:18.544Z,19.17
2022-09-10T20:42:45.189Z,16.20
2022-09-10T20:45:11.779Z,19.57
2022-09-10T20:47:42.887Z,19.80
2022-09-10T20:50:13.733Z,18.03
2022-09-10T20:52:40.824Z,21.23
2022-09-10T20:55:07.968Z,17.07
2022-09-10T20:57:34.549Z,17.40
2022-09-10T21:00:01.594Z,15.73
2022-09-10T21:02:28.316Z,18.93
2022-09-10T21:04:54.889Z,19.53
2022-09-10T21:07:21.445Z,18.60
2022-09-10T21:09:48.057Z,20.47
2022-09-10T21:12:15.830Z,20.57
2022-09-10T21:14:42.360Z,17.80
2022-09-10T21:17:09.004Z,19.33
2022-09-10T21:19:35.557Z,20.47
2022-09-10T21:22:03.121Z,21.00
2022-09-10T21:24:29.693Z,18.93
2022-09-10T21:26:56.489Z,22.47
2022-09-10T21:29:23.085Z,22.53
2022-09-10T21:31:50.551Z,18.97
2022-09-10T21:34:17.388Z,22.00
2022-09-10T21:36:44.061Z,18.53
2022-09-10T21:39:17.671Z,22.17
2022-09-10T21:41:49.199Z,21.97
2022-09-10T21:44:22.094Z,24.60
2022-09-10T21:46:49.443Z,21.30
2022-09-10T21:49:16.916Z,21.30
2022-09-10T21:51:44.167Z,21.63
2022-09-10T21:54:20.528Z,22.80
2022-09-10T21:56:47.985Z,20.50
2022-09-10T21:59:15.478Z,21.70
2022-09-10T22:01:44.617Z,24.37
2022-09-10T22:04:12.659Z,18.77
2022-09-10T22:06:39.544Z,21.00
2022-09-10T22:09:10.593Z,22.70
2022-09-10T22:11:41.880Z,21.53
2022-09-10T22:14:13.326Z,26.03
2022-09-10T22:16:39.929Z,22.93
2022-09-10T22:19:09.600Z,21.23
2022-09-10T22:21:38.263Z,23.67
2022-09-10T22:24:06.238Z,20.13
2022-09-10T22:26:34.037Z,23.70
2022-09-10T22:29:02.479Z,22.90
2022-09-10T22:31:34.131Z,23.93
2022-09-10T22:34:13.301Z,24.83
2022-09-10T22:36:41.713Z,22.00
2022-09-10T22:39:11.903Z,21.63
2022-09-10T22:41:39.233Z,23.07
2022-09-10T22:44:06.164Z,22.33
2022-09-10T22:46:33.637Z,24.87
2022-09-10T22:49:01.113Z,25.17
2022-09-10T22:51:30.489Z,23.20
2022-09-10T22:53:58.035Z,22.53
2022-09-10T22:56:26.843Z,23.57
2022-09-10T22:58:55.478Z,25.03
2022-09-10T23:01:27.365Z,25.17
2022-09-10T23:03:57.042Z,25.30
2022-09-10T23:06:25.034Z,24.47
2022-09-10T23:08:53.740Z,27.47
2022-09-10T23:11:21.562Z,25.33
2022-09-10T23:13:52.648Z,23.03
2022-09-10T23:16:22.283Z,29.50
2022-09-10T23:18:51.812Z,25.90
2022-09-10T23:21:19.687Z,27.60
2022-09-10T23:23:48.502Z,24.43
2022-09-10T23:26:16.378Z,27.20
2022-09-10T23:28:43.452Z,25.73
2022-09-10T23:31:24.673Z,26.07
2022-09-10T23:33:57.879Z,25.40
2022-09-10T23:36:25.799Z,24.67
2022-09-10T23:38:52.361Z,23.60
2022-09-10T23:41:18.961Z,22.93
2022-09-10T23:43:45.651Z,23.40
2022-09-10T23:46:12.490Z,22.20
2022-09-10T23:48:39.893Z,25.57
2022-09-10T23:51:06.934Z,25.87
2022-09-10T23:53:33.638Z,22.40
2022-09-10T23:56:02.735Z,24.37
2022-09-10T23:58:29.878Z,21.87
